sensor_id;sensor_type;location;lat;lon;timestamp;P1;P2;P0
80413;PMS5003;69758;52.580;13.068;2023-12-20T00:00:22;5;4;
80413;PMS5003;69758;52.580;13.068;2023-12-20T00:02:48;6;6;
80413;PMS5003;69758;52.580;13.068;2023-12-20T00:05:13;6;6;
80413;PMS5003;69758;52.580;13.068;2023-12-20T00:07:39;4;4;
80413;PMS5003;69758;52.580;13.068;2023-12-20T00:10:04;6;5;
80413;PMS5003;69758;52.580;13.068;2023-12-20T00:12:29;5;5;
80413;PMS5003;69758;52.580;13.068;2023-12-20T00:14:54;5;5;
80413;PMS5003;69758;52.580;13.068;2023-12-20T00:17:20;6;6;
80413;PMS5003;69758;52.580;13.068;2023-12-20T00:19:45;3;3;
80413;PMS5003;69758;52.580;13.068;2023-12-20T00:22:10;5;5;
80413;PMS5003;69758;52.580;13.068;2023-12-20T00:24:36;5;4;
80413;PMS5003;69758;52.580;13.068;2023-12-20T00:27:01;7;6;
80413;PMS5003;69758;52.580;13.068;2023-12-20T00:29:26;6;6;
80413;PMS5003;69758;52.580;13.068;2023-12-20T00:31:52;5;5;
80413;PMS5003;69758;52.580;13.068;2023-12-20T00:34:17;5;5;
80413;PMS5003;69758;52.580;13.068;2023-12-20T00:36:43;5;4;
80413;PMS5003;69758;52.580;13.068;2023-12-20T00:39:08;7;6;
80413;PMS5003;69758;52.580;13.068;2023-12-20T00:41:33;6;4;
80413;PMS5003;69758;52.580;13.068;2023-12-20T00:43:59;5;4;
80413;PMS5003;69758;52.580;13.068;2023-12-20T00:46:24;5;5;
80413;PMS5003;69758;52.580;13.068;2023-12-20T00:48:49;5;5;
80413;PMS5003;69758;52.580;13.068;2023-12-20T00:51:14;6;5;
80413;PMS5003;69758;52.580;13.068;2023-12-20T00:53:39;5;5;
80413;PMS5003;69758;52.580;13.068;2023-12-20T00:56:05;5;5;
80413;PMS5003;69758;52.580;13.068;2023-12-20T00:58:30;7;6;
80413;PMS5003;69758;52.580;13.068;2023-12-20T01:00:56;7;6;
80413;PMS5003;69758;52.580;13.068;2023-12-20T01:03:21;6;6;
80413;PMS5003;69758;52.580;13.068;2023-12-20T01:05:46;4;4;
80413;PMS5003;69758;52.580;13.068;2023-12-20T01:08:12;4;4;
80413;PMS5003;69758;52.580;13.068;2023-12-20T01:10:37;6;6;
80413;PMS5003;69758;52.580;13.068;2023-12-20T01:13:02;6;5;
80413;PMS5003;69758;52.580;13.068;2023-12-20T01:15:28;5;5;
80413;PMS5003;69758;52.580;13.068;2023-12-20T01:17:53;7;7;
80413;PMS5003;69758;52.580;13.068;2023-12-20T01:20:18;6;6;
80413;PMS5003;69758;52.580;13.068;2023-12-20T01:22:44;6;6;
80413;PMS5003;69758;52.580;13.068;2023-12-20T01:25:09;6;6;
80413;PMS5003;69758;52.580;13.068;2023-12-20T01:27:34;7;7;
80413;PMS5003;69758;52.580;13.068;2023-12-20T01:30:00;6;6;
80413;PMS5003;69758;52.580;13.068;2023-12-20T01:32:25;5;5;
80413;PMS5003;69758;52.580;13.068;2023-12-20T01:34:51;7;7;
80413;PMS5003;69758;52.580;13.068;2023-12-20T01:37:16;5;5;
80413;PMS5003;69758;52.580;13.068;2023-12-20T01:39:42;4;3;
80413;PMS5003;69758;52.580;13.068;2023-12-20T01:42:07;3;3;
80413;PMS5003;69758;52.580;13.068;2023-12-20T01:44:32;2;2;
80413;PMS5003;69758;52.580;13.068;2023-12-20T01:46:58;2;2;
80413;PMS5003;69758;52.580;13.068;2023-12-20T01:49:23;2;2;
80413;PMS5003;69758;52.580;13.068;2023-12-20T01:51:49;4;4;
80413;PMS5003;69758;52.580;13.068;2023-12-20T01:54:14;3;3;
80413;PMS5003;69758;52.580;13.068;2023-12-20T01:56:39;2;1;
80413;PMS5003;69758;52.580;13.068;2023-12-20T01:59:04;1;1;
80413;PMS5003;69758;52.580;13.068;2023-12-20T02:01:30;4;4;
80413;PMS5003;69758;52.580;13.068;2023-12-20T02:03:55;2;2;
80413;PMS5003;69758;52.580;13.068;2023-12-20T02:06:20;2;2;
80413;PMS5003;69758;52.580;13.068;2023-12-20T02:08:46;3;3;
80413;PMS5003;69758;52.580;13.068;2023-12-20T02:11:11;2;2;
80413;PMS5003;69758;52.580;13.068;2023-12-20T02:13:36;2;2;
80413;PMS5003;69758;52.580;13.068;2023-12-20T02:16:02;2;2;
80413;PMS5003;69758;52.580;13.068;2023-12-20T02:18:27;2;2;
80413;PMS5003;69758;52.580;13.068;2023-12-20T02:20:52;3;3;
80413;PMS5003;69758;52.580;13.068;2023-12-20T02:23:18;2;2;
80413;PMS5003;69758;52.580;13.068;2023-12-20T02:25:43;2;2;
80413;PMS5003;69758;52.580;13.068;2023-12-20T02:28:08;2;2;
80413;PMS5003;69758;52.580;13.068;2023-12-20T02:30:34;2;2;
80413;PMS5003;69758;52.580;13.068;2023-12-20T02:33:00;4;3;
80413;PMS5003;69758;52.580;13.068;2023-12-20T02:35:24;1;1;
80413;PMS5003;69758;52.580;13.068;2023-12-20T02:37:50;2;2;
80413;PMS5003;69758;52.580;13.068;2023-12-20T02:40:15;1;1;
80413;PMS5003;69758;52.580;13.068;2023-12-20T02:42:40;2;2;
80413;PMS5003;69758;52.580;13.068;2023-12-20T02:45:07;2;2;
80413;PMS5003;69758;52.580;13.068;2023-12-20T02:47:31;2;2;
80413;PMS5003;69758;52.580;13.068;2023-12-20T02:49:57;3;3;
80413;PMS5003;69758;52.580;13.068;2023-12-20T02:52:22;2;2;
80413;PMS5003;69758;52.580;13.068;2023-12-20T02:54:47;2;2;
80413;PMS5003;69758;52.580;13.068;2023-12-20T02:57:12;2;2;
80413;PMS5003;69758;52.580;13.068;2023-12-20T02:59:38;3;3;
80413;PMS5003;69758;52.580;13.068;2023-12-20T03:02:04;2;2;
80413;PMS5003;69758;52.580;13.068;2023-12-20T03:04:29;2;1;
80413;PMS5003;69758;52.580;13.068;2023-12-20T03:06:54;2;2;
80413;PMS5003;69758;52.580;13.068;2023-12-20T03:09:20;1;1;
80413;PMS5003;69758;52.580;13.068;2023-12-20T03:11:45;0;0;
80413;PMS5003;69758;52.580;13.068;2023-12-20T03:14:11;1;1;
80413;PMS5003;69758;52.580;13.068;2023-12-20T03:16:36;1;1;
80413;PMS5003;69758;52.580;13.068;2023-12-20T03:19:02;1;1;
80413;PMS5003;69758;52.580;13.068;2023-12-20T03:21:27;3;2;
80413;PMS5003;69758;52.580;13.068;2023-12-20T03:23:52;1;1;
80413;PMS5003;69758;52.580;13.068;2023-12-20T03:26:17;2;2;
80413;PMS5003;69758;52.580;13.068;2023-12-20T03:28:43;2;2;
80413;PMS5003;69758;52.580;13.068;2023-12-20T03:31:09;3;2;
80413;PMS5003;69758;52.580;13.068;2023-12-20T03:33:33;2;2;
80413;PMS5003;69758;52.580;13.068;2023-12-20T03:35:59;1;1;
80413;PMS5003;69758;52.580;13.068;2023-12-20T03:38:24;3;3;
80413;PMS5003;69758;52.580;13.068;2023-12-20T03:40:49;2;2;
80413;PMS5003;69758;52.580;13.068;2023-12-20T03:43:15;2;2;
80413;PMS5003;69758;52.580;13.068;2023-12-20T03:45:41;1;1;
80413;PMS5003;69758;52.580;13.068;2023-12-20T03:48:06;0;0;
80413;PMS5003;69758;52.580;13.068;2023-12-20T03:50:31;1;1;
80413;PMS5003;69758;52.580;13.068;2023-12-20T03:52:56;2;2;
80413;PMS5003;69758;52.580;13.068;2023-12-20T03:55:21;3;2;
80413;PMS5003;69758;52.580;13.068;2023-12-20T03:57:47;2;2;
80413;PMS5003;69758;52.580;13.068;2023-12-20T04:00:12;1;1;
80413;PMS5003;69758;52.580;13.068;2023-12-20T04:02:38;3;2;
80413;PMS5003;69758;52.580;13.068;2023-12-20T04:05:03;2;1;
80413;PMS5003;69758;52.580;13.068;2023-12-20T04:07:29;1;1;
80413;PMS5003;69758;52.580;13.068;2023-12-20T04:09:54;1;1;
80413;PMS5003;69758;52.580;13.068;2023-12-20T04:12:19;0;0;
80413;PMS5003;69758;52.580;13.068;2023-12-20T04:14:44;1;1;
80413;PMS5003;69758;52.580;13.068;2023-12-20T04:17:10;2;1;
80413;PMS5003;69758;52.580;13.068;2023-12-20T04:19:35;0;0;
80413;PMS5003;69758;52.580;13.068;2023-12-20T04:22:01;1;1;
80413;PMS5003;69758;52.580;13.068;2023-12-20T04:24:26;1;1;
80413;PMS5003;69758;52.580;13.068;2023-12-20T04:26:52;2;1;
80413;PMS5003;69758;52.580;13.068;2023-12-20T04:29:17;0;0;
80413;PMS5003;69758;52.580;13.068;2023-12-20T04:31:42;0;0;
80413;PMS5003;69758;52.580;13.068;2023-12-20T04:34:07;1;1;
80413;PMS5003;69758;52.580;13.068;2023-12-20T04:36:33;1;1;
80413;PMS5003;69758;52.580;13.068;2023-12-20T04:38:58;1;1;
80413;PMS5003;69758;52.580;13.068;2023-12-20T04:41:23;1;1;
80413;PMS5003;69758;52.580;13.068;2023-12-20T04:43:49;2;2;
80413;PMS5003;69758;52.580;13.068;2023-12-20T04:46:14;1;1;
80413;PMS5003;69758;52.580;13.068;2023-12-20T04:48:39;1;1;
80413;PMS5003;69758;52.580;13.068;2023-12-20T04:51:05;1;1;
80413;PMS5003;69758;52.580;13.068;2023-12-20T04:53:30;1;1;
80413;PMS5003;69758;52.580;13.068;2023-12-20T04:55:55;2;2;
80413;PMS5003;69758;52.580;13.068;2023-12-20T04:58:21;6;6;
80413;PMS5003;69758;52.580;13.068;2023-12-20T05:00:46;4;2;
80413;PMS5003;69758;52.580;13.068;2023-12-20T05:03:12;1;1;
80413;PMS5003;69758;52.580;13.068;2023-12-20T05:05:37;1;1;
80413;PMS5003;69758;52.580;13.068;2023-12-20T05:08:02;9;9;
80413;PMS5003;69758;52.580;13.068;2023-12-20T05:10:28;4;4;
80413;PMS5003;69758;52.580;13.068;2023-12-20T05:12:53;3;3;
80413;PMS5003;69758;52.580;13.068;2023-12-20T05:15:18;2;2;
80413;PMS5003;69758;52.580;13.068;2023-12-20T05:17:44;1;1;
80413;PMS5003;69758;52.580;13.068;2023-12-20T05:20:09;1;1;
80413;PMS5003;69758;52.580;13.068;2023-12-20T05:22:35;2;2;
80413;PMS5003;69758;52.580;13.068;2023-12-20T05:25:00;1;1;
80413;PMS5003;69758;52.580;13.068;2023-12-20T05:27:25;0;0;
80413;PMS5003;69758;52.580;13.068;2023-12-20T05:29:51;1;1;
80413;PMS5003;69758;52.580;13.068;2023-12-20T05:32:16;1;1;
80413;PMS5003;69758;52.580;13.068;2023-12-20T05:34:41;2;2;
80413;PMS5003;69758;52.580;13.068;2023-12-20T05:37:07;1;1;
80413;PMS5003;69758;52.580;13.068;2023-12-20T05:39:32;4;3;
80413;PMS5003;69758;52.580;13.068;2023-12-20T05:41:57;1;1;
80413;PMS5003;69758;52.580;13.068;2023-12-20T05:44:23;1;1;
80413;PMS5003;69758;52.580;13.068;2023-12-20T05:46:48;2;1;
80413;PMS5003;69758;52.580;13.068;2023-12-20T05:49:14;1;1;
80413;PMS5003;69758;52.580;13.068;2023-12-20T05:51:39;3;3;
80413;PMS5003;69758;52.580;13.068;2023-12-20T05:54:04;3;3;
80413;PMS5003;69758;52.580;13.068;2023-12-20T05:56:30;3;1;
80413;PMS5003;69758;52.580;13.068;2023-12-20T05:58:55;0;0;
80413;PMS5003;69758;52.580;13.068;2023-12-20T06:01:20;1;1;
80413;PMS5003;69758;52.580;13.068;2023-12-20T06:03:46;2;2;
80413;PMS5003;69758;52.580;13.068;2023-12-20T06:06:11;3;1;
80413;PMS5003;69758;52.580;13.068;2023-12-20T06:08:37;1;1;
80413;PMS5003;69758;52.580;13.068;2023-12-20T06:11:02;2;2;
80413;PMS5003;69758;52.580;13.068;2023-12-20T06:13:27;1;1;
80413;PMS5003;69758;52.580;13.068;2023-12-20T06:15:53;3;3;
80413;PMS5003;69758;52.580;13.068;2023-12-20T06:18:18;2;2;
80413;PMS5003;69758;52.580;13.068;2023-12-20T06:20:44;4;3;
80413;PMS5003;69758;52.580;13.068;2023-12-20T06:23:09;3;2;
80413;PMS5003;69758;52.580;13.068;2023-12-20T06:25:34;2;2;
80413;PMS5003;69758;52.580;13.068;2023-12-20T06:28:00;2;2;
80413;PMS5003;69758;52.580;13.068;2023-12-20T06:30:25;3;3;
80413;PMS5003;69758;52.580;13.068;2023-12-20T06:32:50;2;2;
80413;PMS5003;69758;52.580;13.068;2023-12-20T06:35:17;2;1;
80413;PMS5003;69758;52.580;13.068;2023-12-20T06:37:41;3;3;
80413;PMS5003;69758;52.580;13.068;2023-12-20T06:40:07;2;1;
80413;PMS5003;69758;52.580;13.068;2023-12-20T06:42:32;2;2;
80413;PMS5003;69758;52.580;13.068;2023-12-20T06:44:57;2;2;
80413;PMS5003;69758;52.580;13.068;2023-12-20T06:47:23;2;2;
80413;PMS5003;69758;52.580;13.068;2023-12-20T06:49:48;4;1;
80413;PMS5003;69758;52.580;13.068;2023-12-20T06:52:14;2;2;
80413;PMS5003;69758;52.580;13.068;2023-12-20T06:54:39;2;2;
80413;PMS5003;69758;52.580;13.068;2023-12-20T06:57:04;2;2;
80413;PMS5003;69758;52.580;13.068;2023-12-20T06:59:30;3;3;
80413;PMS5003;69758;52.580;13.068;2023-12-20T07:01:55;3;2;
80413;PMS5003;69758;52.580;13.068;2023-12-20T07:04:21;3;2;
80413;PMS5003;69758;52.580;13.068;2023-12-20T07:06:46;3;3;
80413;PMS5003;69758;52.580;13.068;2023-12-20T07:09:12;2;2;
80413;PMS5003;69758;52.580;13.068;2023-12-20T07:11:37;2;2;
80413;PMS5003;69758;52.580;13.068;2023-12-20T07:14:02;2;2;
80413;PMS5003;69758;52.580;13.068;2023-12-20T07:16:28;1;1;
80413;PMS5003;69758;52.580;13.068;2023-12-20T07:18:53;2;2;
80413;PMS5003;69758;52.580;13.068;2023-12-20T07:21:18;2;2;
80413;PMS5003;69758;52.580;13.068;2023-12-20T07:23:44;2;2;
80413;PMS5003;69758;52.580;13.068;2023-12-20T07:26:09;2;1;
80413;PMS5003;69758;52.580;13.068;2023-12-20T07:28:35;5;4;
80413;PMS5003;69758;52.580;13.068;2023-12-20T07:31:00;4;3;
80413;PMS5003;69758;52.580;13.068;2023-12-20T07:33:25;4;2;
80413;PMS5003;69758;52.580;13.068;2023-12-20T07:35:51;2;1;
80413;PMS5003;69758;52.580;13.068;2023-12-20T07:38:16;2;2;
80413;PMS5003;69758;52.580;13.068;2023-12-20T07:40:42;2;2;
80413;PMS5003;69758;52.580;13.068;2023-12-20T07:43:07;3;3;
80413;PMS5003;69758;52.580;13.068;2023-12-20T07:45:32;2;2;
80413;PMS5003;69758;52.580;13.068;2023-12-20T07:47:58;2;2;
80413;PMS5003;69758;52.580;13.068;2023-12-20T07:50:23;3;1;
80413;PMS5003;69758;52.580;13.068;2023-12-20T07:52:49;3;3;
80413;PMS5003;69758;52.580;13.068;2023-12-20T07:55:14;3;3;
80413;PMS5003;69758;52.580;13.068;2023-12-20T07:57:39;2;1;
80413;PMS5003;69758;52.580;13.068;2023-12-20T08:00:05;1;1;
80413;PMS5003;69758;52.580;13.068;2023-12-20T08:02:30;1;1;
80413;PMS5003;69758;52.580;13.068;2023-12-20T08:04:55;2;1;
80413;PMS5003;69758;52.580;13.068;2023-12-20T08:07:21;2;2;
80413;PMS5003;69758;52.580;13.068;2023-12-20T08:09:46;2;2;
80413;PMS5003;69758;52.580;13.068;2023-12-20T08:12:11;2;2;
80413;PMS5003;69758;52.580;13.068;2023-12-20T08:14:37;2;2;
80413;PMS5003;69758;52.580;13.068;2023-12-20T08:17:02;2;2;
80413;PMS5003;69758;52.580;13.068;2023-12-20T08:19:27;2;2;
80413;PMS5003;69758;52.580;13.068;2023-12-20T08:21:53;1;1;
80413;PMS5003;69758;52.580;13.068;2023-12-20T08:24:18;2;2;
80413;PMS5003;69758;52.580;13.068;2023-12-20T08:26:44;2;2;
80413;PMS5003;69758;52.580;13.068;2023-12-20T08:29:09;2;2;
80413;PMS5003;69758;52.580;13.068;2023-12-20T08:31:35;2;2;
80413;PMS5003;69758;52.580;13.068;2023-12-20T08:34:00;4;3;
80413;PMS5003;69758;52.580;13.068;2023-12-20T08:36:25;2;2;
80413;PMS5003;69758;52.580;13.068;2023-12-20T08:38:51;3;2;
80413;PMS5003;69758;52.580;13.068;2023-12-20T08:41:16;2;2;
80413;PMS5003;69758;52.580;13.068;2023-12-20T08:43:42;2;2;
80413;PMS5003;69758;52.580;13.068;2023-12-20T08:46:07;5;4;
80413;PMS5003;69758;52.580;13.068;2023-12-20T08:48:33;3;2;
80413;PMS5003;69758;52.580;13.068;2023-12-20T08:50:58;2;2;
80413;PMS5003;69758;52.580;13.068;2023-12-20T08:53:23;3;2;
80413;PMS5003;69758;52.580;13.068;2023-12-20T08:55:48;3;3;
80413;PMS5003;69758;52.580;13.068;2023-12-20T08:58:14;3;2;
80413;PMS5003;69758;52.580;13.068;2023-12-20T09:00:39;2;2;
80413;PMS5003;69758;52.580;13.068;2023-12-20T09:03:05;4;2;
80413;PMS5003;69758;52.580;13.068;2023-12-20T09:05:30;2;2;
80413;PMS5003;69758;52.580;13.068;2023-12-20T09:07:55;3;3;
80413;PMS5003;69758;52.580;13.068;2023-12-20T09:10:21;3;3;
80413;PMS5003;69758;52.580;13.068;2023-12-20T09:12:46;2;2;
80413;PMS5003;69758;52.580;13.068;2023-12-20T09:15:12;2;2;
80413;PMS5003;69758;52.580;13.068;2023-12-20T09:17:37;2;2;
80413;PMS5003;69758;52.580;13.068;2023-12-20T09:20:03;2;2;
80413;PMS5003;69758;52.580;13.068;2023-12-20T09:22:28;3;2;
80413;PMS5003;69758;52.580;13.068;2023-12-20T09:24:53;7;5;
80413;PMS5003;69758;52.580;13.068;2023-12-20T09:27:19;2;2;
80413;PMS5003;69758;52.580;13.068;2023-12-20T09:29:44;2;2;
80413;PMS5003;69758;52.580;13.068;2023-12-20T09:32:09;3;3;
80413;PMS5003;69758;52.580;13.068;2023-12-20T09:34:34;5;3;
80413;PMS5003;69758;52.580;13.068;2023-12-20T09:37:00;3;2;
80413;PMS5003;69758;52.580;13.068;2023-12-20T09:39:25;4;4;
80413;PMS5003;69758;52.580;13.068;2023-12-20T09:41:54;3;3;
80413;PMS5003;69758;52.580;13.068;2023-12-20T09:44:16;2;2;
80413;PMS5003;69758;52.580;13.068;2023-12-20T09:46:42;3;3;
80413;PMS5003;69758;52.580;13.068;2023-12-20T09:49:07;1;1;
80413;PMS5003;69758;52.580;13.068;2023-12-20T09:51:32;2;2;
80413;PMS5003;69758;52.580;13.068;2023-12-20T09:53:58;3;2;
80413;PMS5003;69758;52.580;13.068;2023-12-20T09:56:23;2;2;
80413;PMS5003;69758;52.580;13.068;2023-12-20T09:58:49;5;4;
80413;PMS5003;69758;52.580;13.068;2023-12-20T10:01:14;3;1;
80413;PMS5003;69758;52.580;13.068;2023-12-20T10:03:39;3;2;
80413;PMS5003;69758;52.580;13.068;2023-12-20T10:06:05;4;3;
80413;PMS5003;69758;52.580;13.068;2023-12-20T10:08:31;3;3;
80413;PMS5003;69758;52.580;13.068;2023-12-20T10:10:55;2;2;
80413;PMS5003;69758;52.580;13.068;2023-12-20T10:13:21;3;3;
80413;PMS5003;69758;52.580;13.068;2023-12-20T10:15:46;3;3;
80413;PMS5003;69758;52.580;13.068;2023-12-20T10:18:12;4;3;
80413;PMS5003;69758;52.580;13.068;2023-12-20T10:20:37;3;2;
80413;PMS5003;69758;52.580;13.068;2023-12-20T10:23:02;2;2;
80413;PMS5003;69758;52.580;13.068;2023-12-20T10:25:28;2;2;
80413;PMS5003;69758;52.580;13.068;2023-12-20T10:30:18;4;3;
80413;PMS5003;69758;52.580;13.068;2023-12-20T10:32:43;3;3;
80413;PMS5003;69758;52.580;13.068;2023-12-20T10:35:09;3;3;
80413;PMS5003;69758;52.580;13.068;2023-12-20T10:37:35;2;2;
80413;PMS5003;69758;52.580;13.068;2023-12-20T10:40:00;8;5;
80413;PMS5003;69758;52.580;13.068;2023-12-20T10:42:26;5;2;
80413;PMS5003;69758;52.580;13.068;2023-12-20T10:44:50;3;3;
80413;PMS5003;69758;52.580;13.068;2023-12-20T10:47:15;4;4;
80413;PMS5003;69758;52.580;13.068;2023-12-20T10:49:41;2;2;
80413;PMS5003;69758;52.580;13.068;2023-12-20T10:52:06;3;3;
80413;PMS5003;69758;52.580;13.068;2023-12-20T10:54:32;4;3;
80413;PMS5003;69758;52.580;13.068;2023-12-20T10:56:57;2;2;
80413;PMS5003;69758;52.580;13.068;2023-12-20T10:59:22;5;3;
80413;PMS5003;69758;52.580;13.068;2023-12-20T11:01:48;4;4;
80413;PMS5003;69758;52.580;13.068;2023-12-20T11:04:14;2;2;
80413;PMS5003;69758;52.580;13.068;2023-12-20T11:06:40;3;3;
80413;PMS5003;69758;52.580;13.068;2023-12-20T11:09:08;5;5;
80413;PMS5003;69758;52.580;13.068;2023-12-20T11:11:31;4;3;
80413;PMS5003;69758;52.580;13.068;2023-12-20T11:13:56;2;2;
80413;PMS5003;69758;52.580;13.068;2023-12-20T11:16:20;3;2;
80413;PMS5003;69758;52.580;13.068;2023-12-20T11:18:45;3;3;
80413;PMS5003;69758;52.580;13.068;2023-12-20T11:21:11;4;3;
80413;PMS5003;69758;52.580;13.068;2023-12-20T11:23:37;3;3;
80413;PMS5003;69758;52.580;13.068;2023-12-20T11:26:02;4;3;
80413;PMS5003;69758;52.580;13.068;2023-12-20T11:28:28;2;2;
80413;PMS5003;69758;52.580;13.068;2023-12-20T11:30:54;4;4;
80413;PMS5003;69758;52.580;13.068;2023-12-20T11:33:29;5;3;
80413;PMS5003;69758;52.580;13.068;2023-12-20T11:35:45;3;3;
80413;PMS5003;69758;52.580;13.068;2023-12-20T11:38:09;4;4;
80413;PMS5003;69758;52.580;13.068;2023-12-20T11:40:34;5;4;
80413;PMS5003;69758;52.580;13.068;2023-12-20T11:43:00;4;4;
80413;PMS5003;69758;52.580;13.068;2023-12-20T11:45:25;2;2;
80413;PMS5003;69758;52.580;13.068;2023-12-20T11:47:50;5;5;
80413;PMS5003;69758;52.580;13.068;2023-12-20T11:50:15;3;3;
80413;PMS5003;69758;52.580;13.068;2023-12-20T11:52:41;4;4;
80413;PMS5003;69758;52.580;13.068;2023-12-20T11:55:06;2;2;
80413;PMS5003;69758;52.580;13.068;2023-12-20T11:57:32;5;5;
80413;PMS5003;69758;52.580;13.068;2023-12-20T11:59:57;2;2;
80413;PMS5003;69758;52.580;13.068;2023-12-20T12:02:22;4;3;
80413;PMS5003;69758;52.580;13.068;2023-12-20T12:04:48;6;5;
80413;PMS5003;69758;52.580;13.068;2023-12-20T12:07:13;4;2;
80413;PMS5003;69758;52.580;13.068;2023-12-20T12:09:38;4;3;
80413;PMS5003;69758;52.580;13.068;2023-12-20T12:12:04;4;3;
80413;PMS5003;69758;52.580;13.068;2023-12-20T12:14:29;3;2;
80413;PMS5003;69758;52.580;13.068;2023-12-20T12:16:54;3;2;
80413;PMS5003;69758;52.580;13.068;2023-12-20T12:19:20;3;3;
80413;PMS5003;69758;52.580;13.068;2023-12-20T12:21:45;3;3;
80413;PMS5003;69758;52.580;13.068;2023-12-20T12:24:11;4;4;
80413;PMS5003;69758;52.580;13.068;2023-12-20T12:26:36;5;4;
80413;PMS5003;69758;52.580;13.068;2023-12-20T12:29:01;3;3;
80413;PMS5003;69758;52.580;13.068;2023-12-20T12:31:27;5;5;
80413;PMS5003;69758;52.580;13.068;2023-12-20T12:33:52;4;4;
80413;PMS5003;69758;52.580;13.068;2023-12-20T12:36:17;5;4;
80413;PMS5003;69758;52.580;13.068;2023-12-20T12:38:43;4;4;
80413;PMS5003;69758;52.580;13.068;2023-12-20T12:41:08;4;3;
80413;PMS5003;69758;52.580;13.068;2023-12-20T12:43:34;5;4;
80413;PMS5003;69758;52.580;13.068;2023-12-20T12:45:59;3;3;
80413;PMS5003;69758;52.580;13.068;2023-12-20T12:48:24;5;5;
80413;PMS5003;69758;52.580;13.068;2023-12-20T12:50:50;7;7;
80413;PMS5003;69758;52.580;13.068;2023-12-20T12:53:15;3;3;
80413;PMS5003;69758;52.580;13.068;2023-12-20T12:55:40;4;4;
80413;PMS5003;69758;52.580;13.068;2023-12-20T12:58:19;5;4;
80413;PMS5003;69758;52.580;13.068;2023-12-20T13:00:31;4;4;
80413;PMS5003;69758;52.580;13.068;2023-12-20T13:02:57;5;5;
80413;PMS5003;69758;52.580;13.068;2023-12-20T13:05:22;4;4;
80413;PMS5003;69758;52.580;13.068;2023-12-20T13:07:48;5;5;
80413;PMS5003;69758;52.580;13.068;2023-12-20T13:10:12;5;5;
80413;PMS5003;69758;52.580;13.068;2023-12-20T13:12:38;3;3;
80413;PMS5003;69758;52.580;13.068;2023-12-20T13:15:04;5;5;
80413;PMS5003;69758;52.580;13.068;2023-12-20T13:17:29;3;3;
80413;PMS5003;69758;52.580;13.068;2023-12-20T13:19:54;2;2;
80413;PMS5003;69758;52.580;13.068;2023-12-20T13:22:20;3;3;
80413;PMS5003;69758;52.580;13.068;2023-12-20T13:24:46;3;3;
80413;PMS5003;69758;52.580;13.068;2023-12-20T13:27:10;2;2;
80413;PMS5003;69758;52.580;13.068;2023-12-20T13:29:36;3;3;
80413;PMS5003;69758;52.580;13.068;2023-12-20T13:32:01;1;1;
80413;PMS5003;69758;52.580;13.068;2023-12-20T13:34:26;1;1;
80413;PMS5003;69758;52.580;13.068;2023-12-20T13:36:52;0;0;
80413;PMS5003;69758;52.580;13.068;2023-12-20T13:39:17;0;0;
80413;PMS5003;69758;52.580;13.068;2023-12-20T13:41:42;1;1;
80413;PMS5003;69758;52.580;13.068;2023-12-20T13:44:08;1;0;
80413;PMS5003;69758;52.580;13.068;2023-12-20T13:46:33;1;1;
80413;PMS5003;69758;52.580;13.068;2023-12-20T13:48:59;2;1;
80413;PMS5003;69758;52.580;13.068;2023-12-20T13:51:24;1;0;
80413;PMS5003;69758;52.580;13.068;2023-12-20T13:53:49;1;1;
80413;PMS5003;69758;52.580;13.068;2023-12-20T13:56:15;2;1;
80413;PMS5003;69758;52.580;13.068;2023-12-20T13:58:40;1;1;
80413;PMS5003;69758;52.580;13.068;2023-12-20T14:01:05;0;0;
80413;PMS5003;69758;52.580;13.068;2023-12-20T14:03:31;0;0;
80413;PMS5003;69758;52.580;13.068;2023-12-20T14:05:56;0;0;
80413;PMS5003;69758;52.580;13.068;2023-12-20T14:08:22;0;0;
80413;PMS5003;69758;52.580;13.068;2023-12-20T14:10:47;0;0;
80413;PMS5003;69758;52.580;13.068;2023-12-20T14:13:12;0;0;
80413;PMS5003;69758;52.580;13.068;2023-12-20T14:15:38;1;0;
80413;PMS5003;69758;52.580;13.068;2023-12-20T14:18:04;5;5;
80413;PMS5003;69758;52.580;13.068;2023-12-20T14:20:29;0;0;
80413;PMS5003;69758;52.580;13.068;2023-12-20T14:22:54;0;0;
80413;PMS5003;69758;52.580;13.068;2023-12-20T14:25:19;0;0;
80413;PMS5003;69758;52.580;13.068;2023-12-20T14:27:45;0;0;
80413;PMS5003;69758;52.580;13.068;2023-12-20T14:30:11;0;0;
80413;PMS5003;69758;52.580;13.068;2023-12-20T14:32:36;1;0;
80413;PMS5003;69758;52.580;13.068;2023-12-20T14:35:01;0;0;
80413;PMS5003;69758;52.580;13.068;2023-12-20T14:37:26;0;0;
80413;PMS5003;69758;52.580;13.068;2023-12-20T14:39:52;0;0;
80413;PMS5003;69758;52.580;13.068;2023-12-20T14:42:17;1;0;
80413;PMS5003;69758;52.580;13.068;2023-12-20T14:44:43;0;0;
80413;PMS5003;69758;52.580;13.068;2023-12-20T14:47:08;0;0;
80413;PMS5003;69758;52.580;13.068;2023-12-20T14:49:34;1;0;
80413;PMS5003;69758;52.580;13.068;2023-12-20T14:51:59;0;0;
80413;PMS5003;69758;52.580;13.068;2023-12-20T14:54:24;1;0;
80413;PMS5003;69758;52.580;13.068;2023-12-20T14:56:50;0;0;
80413;PMS5003;69758;52.580;13.068;2023-12-20T14:59:15;1;0;
80413;PMS5003;69758;52.580;13.068;2023-12-20T15:01:40;0;0;
80413;PMS5003;69758;52.580;13.068;2023-12-20T15:04:06;0;0;
80413;PMS5003;69758;52.580;13.068;2023-12-20T15:06:34;1;1;
80413;PMS5003;69758;52.580;13.068;2023-12-20T15:08:57;1;1;
80413;PMS5003;69758;52.580;13.068;2023-12-20T15:11:22;0;0;
80413;PMS5003;69758;52.580;13.068;2023-12-20T15:13:48;3;2;
80413;PMS5003;69758;52.580;13.068;2023-12-20T15:16:13;1;1;
80413;PMS5003;69758;52.580;13.068;2023-12-20T15:18:38;2;1;
80413;PMS5003;69758;52.580;13.068;2023-12-20T15:21:04;0;0;
80413;PMS5003;69758;52.580;13.068;2023-12-20T15:23:29;0;0;
80413;PMS5003;69758;52.580;13.068;2023-12-20T15:25:54;1;0;
80413;PMS5003;69758;52.580;13.068;2023-12-20T15:28:20;1;1;
80413;PMS5003;69758;52.580;13.068;2023-12-20T15:30:45;0;0;
80413;PMS5003;69758;52.580;13.068;2023-12-20T15:33:11;0;0;
80413;PMS5003;69758;52.580;13.068;2023-12-20T15:35:36;5;5;
80413;PMS5003;69758;52.580;13.068;2023-12-20T15:38:01;2;2;
80413;PMS5003;69758;52.580;13.068;2023-12-20T15:40:28;4;4;
80413;PMS5003;69758;52.580;13.068;2023-12-20T15:42:52;3;3;
80413;PMS5003;69758;52.580;13.068;2023-12-20T15:45:18;3;1;
80413;PMS5003;69758;52.580;13.068;2023-12-20T15:47:43;5;4;
80413;PMS5003;69758;52.580;13.068;2023-12-20T15:50:08;2;1;
80413;PMS5003;69758;52.580;13.068;2023-12-20T15:52:34;1;1;
80413;PMS5003;69758;52.580;13.068;2023-12-20T15:54:59;1;1;
80413;PMS5003;69758;52.580;13.068;2023-12-20T15:57:24;2;2;
80413;PMS5003;69758;52.580;13.068;2023-12-20T15:59:50;1;1;
80413;PMS5003;69758;52.580;13.068;2023-12-20T16:02:15;1;1;
80413;PMS5003;69758;52.580;13.068;2023-12-20T16:04:40;1;1;
80413;PMS5003;69758;52.580;13.068;2023-12-20T16:07:11;1;1;
80413;PMS5003;69758;52.580;13.068;2023-12-20T16:09:31;1;1;
80413;PMS5003;69758;52.580;13.068;2023-12-20T16:11:57;1;1;
80413;PMS5003;69758;52.580;13.068;2023-12-20T16:14:22;1;1;
80413;PMS5003;69758;52.580;13.068;2023-12-20T16:16:48;1;0;
80413;PMS5003;69758;52.580;13.068;2023-12-20T16:19:13;2;2;
80413;PMS5003;69758;52.580;13.068;2023-12-20T16:21:38;1;1;